Time;durP1;ratioP1;P1;durP2;ratioP2;P2;SDS_P1;SDS_P2;PMS_P1;PMS_P2;Temp;Humidity;BMP_temperature;BMP_pressure;BME280_temperature;BME280_humidity;BME280_pressure;Samples;Min_cycle;Max_cycle;Signal;HPM_P1;HPM_P2
2022/02/11 00:06:31;;;;;;;0.30;0.30;;;7.10;99.90;;;;;;5053329;28;20201;-70
2022/02/11 00:08:58;;;;;;;0.30;0.30;;;7.10;99.90;;;;;;5053202;28;20181;-70
2022/02/11 00:11:39;;;;;;;0.40;0.40;;;7.20;99.90;;;;;;5053372;28;20218;-70
2022/02/11 00:14:07;;;;;;;0.30;0.30;;;7.30;99.90;;;;;;5053642;28;20178;-70
2022/02/11 00:16:35;;;;;;;0.30;0.30;;;7.30;99.90;;;;;;5053077;28;20252;-70
2022/02/11 00:19:02;;;;;;;0.32;0.32;;;7.20;99.90;;;;;;5052965;28;20162;-70
2022/02/11 00:21:29;;;;;;;0.40;0.40;;;7.20;99.90;;;;;;5053156;28;20202;-71
2022/02/11 00:23:58;;;;;;;0.35;0.35;;;7.10;99.90;;;;;;5053265;28;20163;-69
2022/02/11 00:26:34;;;;;;;0.30;0.30;;;7.10;99.90;;;;;;5052988;28;20187;-70
2022/02/11 00:31:56;;;;;;;0.30;0.30;;;7.00;99.90;;;;;;5053356;28;20170;-69
2022/02/11 00:34:29;;;;;;;0.40;0.40;;;7.00;99.90;;;;;;5053211;28;20162;-70
2022/02/11 00:37:07;;;;;;;0.30;0.30;;;7.10;99.90;;;;;;5053296;28;20190;-70
2022/02/11 01:04:03;;;;;;;0.38;0.38;;;7.00;99.90;;;;;;5056596;28;20666;-68
2022/02/11 01:06:30;;;;;;;0.40;0.40;;;6.90;99.90;;;;;;5056417;28;20186;-70
2022/02/11 01:08:56;;;;;;;0.40;0.40;;;6.90;99.90;;;;;;5056279;28;20666;-70
2022/02/11 01:13:51;;;;;;;0.30;0.30;;;7.00;99.90;;;;;;5056461;28;20203;-69
2022/02/11 01:16:22;;;;;;;0.30;0.30;;;7.00;99.90;;;;;;5056060;28;20197;-69
2022/02/11 01:18:56;;;;;;;0.40;0.40;;;7.10;99.90;;;;;;5056251;28;20175;-69
2022/02/11 01:21:32;;;;;;;0.30;0.30;;;7.00;99.90;;;;;;5056107;28;20212;-70
2022/02/11 01:24:14;;;;;;;0.40;0.40;;;7.00;99.90;;;;;;5056393;28;20166;-71
2022/02/11 01:26:52;;;;;;;0.30;0.30;;;7.00;99.90;;;;;;5056189;28;20284;-70
2022/02/11 01:34:45;;;;;;;0.35;0.35;;;7.00;99.90;;;;;;5056020;28;20189;-69
2022/02/11 01:37:34;;;;;;;0.40;0.40;;;7.00;99.80;;;;;;5055772;28;20147;-70
2022/02/11 02:14:34;;;;;;;0.40;0.40;;;6.00;99.60;;;;;;5055347;28;20275;-68
2022/02/11 02:23:10;;;;;;;0.38;0.38;;;6.30;99.90;;;;;;5055231;28;20216;-69
2022/02/11 02:26:02;;;;;;;0.40;0.40;;;6.30;99.70;;;;;;5056865;28;20691;-70
2022/02/11 02:57:25;;;;;;;0.30;0.30;;;6.30;99.60;;;;;;5054472;28;20165;-70
2022/02/11 03:31:39;;;;;;;0.40;0.40;;;6.10;99.90;;;;;;5053903;28;20255;-71
2022/02/11 03:48:51;;;;;;;0.30;0.30;;;6.10;99.10;;;;;;5053876;28;20563;-69
2022/02/11 03:49:19;;;;;;;0.30;0.30;;;6.10;99.10;;;;;;5053220;28;20257;-69
2022/02/11 03:57:28;;;;;;;0.32;0.32;;;6.10;99.00;;;;;;5053284;28;20276;-70
2022/02/11 04:22:16;;;;;;;0.40;0.40;;;5.20;99.70;;;;;;5054188;28;20216;-69
2022/02/11 05:00:05;;;;;;;0.40;0.40;;;4.50;98.10;;;;;;5056391;28;20251;-74
2022/02/11 05:02:35;;;;;;;0.40;0.40;;;4.20;98.90;;;;;;5055156;28;20167;-78
2022/02/11 05:05:04;;;;;;;0.32;0.32;;;4.00;99.10;;;;;;5056913;28;20194;-71
2022/02/11 05:07:31;;;;;;;0.40;0.40;;;3.70;99.40;;;;;;5055342;28;20166;-71
2022/02/11 05:09:56;;;;;;;0.40;0.40;;;3.50;99.80;;;;;;5056324;28;20181;-76
2022/02/11 05:12:23;;;;;;;0.40;0.40;;;3.60;99.90;;;;;;5056587;28;20224;-69
2022/02/11 05:14:49;;;;;;;0.40;0.40;;;3.90;99.90;;;;;;5056220;28;20549;-77
2022/02/11 05:17:14;;;;;;;0.40;0.40;;;3.60;99.90;;;;;;5056710;28;20174;-76
2022/02/11 05:19:40;;;;;;;0.30;0.30;;;3.60;99.90;;;;;;5056046;28;20177;-75
2022/02/11 05:22:05;;;;;;;0.30;0.30;;;3.70;99.90;;;;;;5058578;28;20193;-77
2022/02/11 05:24:31;;;;;;;0.30;0.30;;;3.60;99.80;;;;;;5056417;28;20177;-70
2022/02/11 05:26:57;;;;;;;0.40;0.40;;;3.60;99.90;;;;;;5054693;28;20190;-68
2022/02/11 05:29:22;;;;;;;0.30;0.30;;;3.60;99.90;;;;;;5054612;28;20206;-69
2022/02/11 05:31:48;;;;;;;0.30;0.30;;;3.60;99.60;;;;;;5055279;28;20263;-72
2022/02/11 05:34:14;;;;;;;0.40;0.40;;;3.50;99.60;;;;;;5054440;28;20184;-72
2022/02/11 05:36:39;;;;;;;0.30;0.30;;;3.30;99.60;;;;;;5056407;28;20247;-70
2022/02/11 05:39:05;;;;;;;0.40;0.40;;;3.30;99.90;;;;;;5055784;28;20644;-68
2022/02/11 05:41:31;;;;;;;0.30;0.30;;;3.40;99.90;;;;;;5054488;28;20194;-68
2022/02/11 05:49:54;;;;;;;0.30;0.30;;;3.90;99.60;;;;;;5016447;28;20202;-71
2022/02/11 05:52:19;;;;;;;0.30;0.30;;;3.80;99.00;;;;;;5015166;28;20214;-71
2022/02/11 05:54:45;;;;;;;0.40;0.40;;;3.80;98.60;;;;;;5016077;28;20174;-71
2022/02/11 05:57:11;;;;;;;0.30;0.30;;;3.60;98.10;;;;;;5015798;28;20171;-70
2022/02/11 05:59:36;;;;;;;0.40;0.40;;;3.60;98.10;;;;;;5015860;28;20200;-71
2022/02/11 06:02:02;;;;;;;0.30;0.30;;;3.50;98.40;;;;;;5015650;28;20277;-69
2022/02/11 06:04:28;;;;;;;0.30;0.30;;;3.40;98.00;;;;;;5015618;28;20198;-71
2022/02/11 06:06:53;;;;;;;0.40;0.40;;;3.20;97.80;;;;;;5015534;28;20174;-71
2022/02/11 06:09:20;;;;;;;0.30;0.30;;;3.10;97.90;;;;;;5014429;28;20171;-71
2022/02/11 06:11:46;;;;;;;0.30;0.30;;;3.10;97.80;;;;;;5015590;28;20195;-68
2022/02/11 06:14:13;;;;;;;0.40;0.40;;;3.30;97.70;;;;;;5015972;28;20186;-69
2022/02/11 06:16:39;;;;;;;0.30;0.30;;;3.20;97.40;;;;;;5015194;28;20574;-69
2022/02/11 06:19:04;;;;;;;0.30;0.30;;;3.20;97.50;;;;;;5015425;28;20646;-73
2022/02/11 06:21:30;;;;;;;0.30;0.30;;;3.30;97.40;;;;;;5015347;28;20274;-71
2022/02/11 06:23:56;;;;;;;0.40;0.40;;;3.30;97.60;;;;;;5015601;28;20176;-70
2022/02/11 06:26:25;;;;;;;0.30;0.30;;;3.30;98.00;;;;;;5015280;28;20222;-70
2022/02/11 06:28:52;;;;;;;0.30;0.30;;;;;;;;;;5014998;28;20168;-72
2022/02/11 06:31:18;;;;;;;0.40;0.40;;;3.00;97.40;;;;;;5014918;28;20197;-71
2022/02/11 06:33:45;;;;;;;0.35;0.35;;;3.10;99.90;;;;;;5014211;28;20190;-71
2022/02/11 06:36:11;;;;;;;0.40;0.40;;;3.10;99.90;;;;;;5014288;28;20205;-71
2022/02/11 06:38:37;;;;;;;0.40;0.40;;;;;;;;;;5013451;28;20225;-71
2022/02/11 06:41:03;;;;;;;0.30;0.30;;;3.20;99.90;;;;;;5014634;28;20472;-71
2022/02/11 06:43:29;;;;;;;0.40;0.40;;;2.70;99.90;;;;;;5013328;28;20178;-72
2022/02/11 06:45:54;;;;;;;0.30;0.30;;;2.80;99.90;;;;;;5012405;28;20610;-71
2022/02/11 06:48:26;;;;;;;0.40;0.40;;;2.90;99.90;;;;;;5014605;28;20167;-71
2022/02/11 06:50:52;;;;;;;0.40;0.40;;;2.90;99.90;;;;;;5015011;28;20656;-71
2022/02/11 06:53:18;;;;;;;0.40;0.40;;;4.80;98.50;;;;;;5014611;28;20209;-71
2022/02/11 06:55:44;;;;;;;0.40;0.40;;;2.90;99.90;;;;;;5014661;28;20550;-72
2022/02/11 06:58:10;;;;;;;0.30;0.30;;;;;;;;;;5014768;28;20487;-71
2022/02/11 07:00:39;;;;;;;0.30;0.30;;;2.70;99.50;;;;;;5014495;28;20209;-71
2022/02/11 07:03:06;;;;;;;0.35;0.35;;;2.80;96.80;;;;;;5014734;28;20198;-72
2022/02/11 07:05:34;;;;;;;0.30;0.30;;;4.60;98.00;;;;;;5014531;28;20250;-71
2022/02/11 07:08:00;;;;;;;0.40;0.40;;;;;;;;;;5014679;28;20533;-72
2022/02/11 07:10:26;;;;;;;0.35;0.35;;;;;;;;;;5014511;28;20264;-72
2022/02/11 07:12:52;;;;;;;0.30;0.30;;;3.10;99.90;;;;;;5014600;28;20605;-71
2022/02/11 07:15:18;;;;;;;0.40;0.40;;;3.20;99.90;;;;;;5014208;28;20203;-71
2022/02/11 07:17:44;;;;;;;0.40;0.40;;;;;;;;;;5014266;28;20171;-71
2022/02/11 07:20:11;;;;;;;0.40;0.40;;;3.10;99.90;;;;;;5014247;28;20460;-72
2022/02/11 07:22:37;;;;;;;0.30;0.30;;;;;;;;;;5014255;28;20183;-71
2022/02/11 07:25:08;;;;;;;0.40;0.40;;;2.80;97.20;;;;;;5014195;28;20225;-71
2022/02/11 07:27:34;;;;;;;0.30;0.30;;;;;;;;;;5014131;28;20217;-71
2022/02/11 07:29:59;;;;;;;0.40;0.40;;;2.90;99.90;;;;;;5014174;28;20184;-71
2022/02/11 07:32:26;;;;;;;0.30;0.30;;;;;;;;;;5014044;28;20194;-71
2022/02/11 07:34:55;;;;;;;0.30;0.30;;;3.10;98.50;;;;;;5014079;28;20206;-72
2022/02/11 07:37:22;;;;;;;0.40;0.40;;;;;;;;;;5014054;28;20182;-71
2022/02/11 07:39:48;;;;;;;0.40;0.40;;;3.20;95.20;;;;;;5014109;28;20199;-71
2022/02/11 07:42:14;;;;;;;0.40;0.40;;;3.30;94.80;;;;;;5013931;28;20249;-72
2022/02/11 07:44:40;;;;;;;0.40;0.40;;;3.40;95.00;;;;;;5014194;28;20632;-72
2022/02/11 07:47:06;;;;;;;0.32;0.32;;;3.40;95.40;;;;;;5013792;28;20430;-72
2022/02/11 07:49:34;;;;;;;0.40;0.40;;;3.50;95.60;;;;;;5014099;28;20187;-71
2022/02/11 07:52:00;;;;;;;0.40;0.40;;;3.50;94.80;;;;;;5013999;28;20471;-71
2022/02/11 07:54:27;;;;;;;0.40;0.40;;;3.50;95.10;;;;;;5013793;28;20268;-71
2022/02/11 07:56:53;;;;;;;0.40;0.40;;;3.80;95.80;;;;;;5013846;28;20163;-71
2022/02/11 07:59:19;;;;;;;0.30;0.30;;;3.60;95.70;;;;;;5013962;28;20697;-72
2022/02/11 08:01:44;;;;;;;0.40;0.40;;;3.60;95.80;;;;;;5013669;28;20205;-71
2022/02/11 08:04:10;;;;;;;0.33;0.33;;;3.30;94.80;;;;;;5013841;28;20169;-71
2022/02/11 08:06:36;;;;;;;0.40;0.40;;;3.30;94.60;;;;;;5013585;28;20205;-72
2022/02/11 08:09:02;;;;;;;0.40;0.40;;;3.30;96.00;;;;;;5014065;28;20257;-71
2022/02/11 08:11:27;;;;;;;0.30;0.30;;;3.60;97.40;;;;;;5013574;28;20195;-72
2022/02/11 08:13:53;;;;;;;0.40;0.40;;;4.20;96.90;;;;;;5013815;28;20509;-71
2022/02/11 08:16:19;;;;;;;0.40;0.40;;;4.50;95.00;;;;;;5012167;28;20180;-71
2022/02/11 08:18:44;;;;;;;0.30;0.30;;;4.90;94.50;;;;;;5013727;28;20179;-71
2022/02/11 08:21:10;;;;;;;0.40;0.40;;;4.90;92.40;;;;;;5013599;28;20203;-72
2022/02/11 08:23:35;;;;;;;0.40;0.40;;;5.10;91.80;;;;;;5013502;28;20161;-71
2022/02/11 08:26:01;;;;;;;0.40;0.40;;;5.60;90.80;;;;;;5013348;28;20529;-71
2022/02/11 08:28:27;;;;;;;0.40;0.40;;;7.00;90.20;;;;;;5013740;28;20504;-72
2022/02/11 08:30:53;;;;;;;0.40;0.40;;;8.90;83.20;;;;;;5013545;28;20569;-72
2022/02/11 08:33:22;;;;;;;0.30;0.30;;;10.90;72.70;;;;;;5013585;28;20176;-72
2022/02/11 08:35:52;;;;;;;0.30;0.30;;;12.50;60.90;;;;;;5013325;28;20229;-72
2022/02/11 08:38:19;;;;;;;0.30;0.30;;;13.80;57.10;;;;;;5013845;28;20611;-72
2022/02/11 08:40:46;;;;;;;0.30;0.30;;;15.10;52.60;;;;;;5013366;28;20582;-72
2022/02/11 08:43:12;;;;;;;0.40;0.40;;;16.20;48.80;;;;;;5013343;28;20504;-72
2022/02/11 08:45:40;;;;;;;0.40;0.40;;;17.30;44.60;;;;;;5013310;28;20431;-72
2022/02/11 08:48:09;;;;;;;0.30;0.30;;;18.00;42.00;;;;;;5013473;28;20406;-72
2022/02/11 08:50:36;;;;;;;0.80;0.80;;;18.20;38.10;;;;;;5013385;28;20895;-72
2022/02/11 08:53:08;;;;;;;0.40;0.40;;;17.20;38.30;;;;;;5011824;28;20435;-72
2022/02/11 08:55:35;;;;;;;0.30;0.30;;;16.30;39.30;;;;;;5013272;28;20775;-72
2022/02/11 08:58:03;;;;;;;0.30;0.30;;;16.50;40.70;;;;;;5013393;28;20750;-72
2022/02/11 09:00:30;;;;;;;0.33;0.30;;;16.30;41.70;;;;;;5013099;28;20484;-71
2022/02/11 09:02:57;;;;;;;0.30;0.30;;;16.50;40.50;;;;;;5011728;28;20928;-72
2022/02/11 09:05:24;;;;;;;0.40;0.40;;;16.90;40.20;;;;;;5013390;28;20442;-72
2022/02/11 09:08:01;;;;;;;0.30;0.30;;;17.30;38.90;;;;;;5014598;28;20404;-72
2022/02/11 09:10:30;;;;;;;0.40;0.40;;;17.50;38.20;;;;;;5016919;28;20414;-72
2022/02/11 09:12:57;;;;;;;0.30;0.30;;;17.50;37.90;;;;;;5016708;28;20407;-72
2022/02/11 09:15:24;;;;;;;0.30;0.30;;;17.20;38.80;;;;;;5016589;28;20441;-72
2022/02/11 09:17:50;;;;;;;0.30;0.30;;;17.20;38.70;;;;;;5016529;28;20442;-72
2022/02/11 09:20:20;;;;;;;0.30;0.30;;;17.20;50.40;;;;;;5015081;28;20504;-70
2022/02/11 09:22:45;;;;;;;1.20;1.17;;;17.40;37.40;;;;;;5016404;28;20399;-70
2022/02/11 09:25:12;;;;;;;0.30;0.30;;;17.40;37.40;;;;;;5016417;28;20406;-70
2022/02/11 09:27:43;;;;;;;0.30;0.30;;;17.90;36.70;;;;;;5016495;28;20165;-70
2022/02/11 09:30:17;;;;;;;0.40;0.40;;;19.00;50.00;;;;;;5016402;28;20783;-70
2022/02/11 09:32:45;;;;;;;0.30;0.30;;;18.80;34.90;;;;;;5016274;28;20385;-70
2022/02/11 09:35:12;;;;;;;0.30;0.30;;;19.40;34.30;;;;;;5016038;28;20420;-70
2022/02/11 09:37:38;;;;;;;0.30;0.30;;;20.00;33.70;;;;;;5016498;28;20403;-70
2022/02/11 09:40:06;;;;;;;0.30;0.30;;;20.20;32.60;;;;;;5016543;28;20507;-70
2022/02/11 09:42:32;;;;;;;0.50;0.50;;;20.50;32.20;;;;;;5016000;28;20421;-70
2022/02/11 09:44:59;;;;;;;0.33;0.33;;;20.60;32.00;;;;;;5015988;28;20903;-70
2022/02/11 09:47:25;;;;;;;0.30;0.30;;;20.40;32.50;;;;;;5016117;28;20251;-70
2022/02/11 09:49:51;;;;;;;0.40;0.40;;;20.50;32.00;;;;;;5016150;28;20414;-70
2022/02/11 09:52:18;;;;;;;2.10;1.80;;;20.50;31.50;;;;;;5015656;28;20438;-70
2022/02/11 09:54:44;;;;;;;0.30;0.30;;;20.50;31.70;;;;;;5016056;28;20275;-70
2022/02/11 09:57:10;;;;;;;0.40;0.40;;;20.40;31.90;;;;;;5015400;28;20407;-71
2022/02/11 09:59:37;;;;;;;0.40;0.40;;;20.50;31.90;;;;;;5015431;28;20298;-70
2022/02/11 10:02:03;;;;;;;0.30;0.30;;;21.00;32.10;;;;;;5015430;28;20796;-70
2022/02/11 10:04:29;;;;;;;0.30;0.30;;;21.20;31.50;;;;;;5015588;28;20414;-70
2022/02/11 10:06:57;;;;;;;0.40;0.40;;;20.90;30.60;;;;;;5015347;28;20403;-70
2022/02/11 10:09:23;;;;;;;0.30;0.30;;;19.70;31.00;;;;;;5015707;28;20478;-70
2022/02/11 10:11:50;;;;;;;0.30;0.30;;;19.50;31.80;;;;;;5014087;28;20471;-70
2022/02/11 10:14:22;;;;;;;0.30;0.30;;;20.00;31.70;;;;;;5015404;28;20175;-70
2022/02/11 10:16:56;;;;;;;0.30;0.30;;;20.40;31.70;;;;;;5015317;28;20414;-70
2022/02/11 10:19:44;;;;;;;0.30;0.30;;;20.50;30.10;;;;;;5015416;28;20406;-71
2022/02/11 10:22:25;;;;;;;0.30;0.30;;;20.40;31.00;;;;;;5015360;28;20434;-71
2022/02/11 10:24:52;;;;;;;0.40;0.40;;;20.30;30.80;;;;;;5015465;28;20402;-71
2022/02/11 10:27:32;;;;;;;0.30;0.30;;;20.10;29.80;;;;;;5015094;28;20469;-71
2022/02/11 10:30:00;;;;;;;0.33;0.33;;;20.20;29.70;;;;;;5015256;28;20399;-71
2022/02/11 10:32:41;;;;;;;0.30;0.30;;;20.20;31.40;;;;;;5015021;28;20771;-71
2022/02/11 10:35:09;;;;;;;0.40;0.40;;;19.70;30.00;;;;;;5013606;28;20417;-71
2022/02/11 10:37:35;;;;;;;0.30;0.30;;;19.60;30.00;;;;;;5015026;28;20445;-71
2022/02/11 10:40:01;;;;;;;0.30;0.30;;;19.80;30.60;;;;;;5014949;28;20477;-72
2022/02/11 10:42:46;;;;;;;0.30;0.30;;;20.00;30.60;;;;;;5014816;28;20192;-71
2022/02/11 10:45:32;;;;;;;0.30;0.30;;;19.90;31.00;;;;;;5014815;28;20171;-71
2022/02/11 10:48:10;;;;;;;0.30;0.30;;;20.20;29.90;;;;;;5014911;28;20465;-71
2022/02/11 10:50:36;;;;;;;0.30;0.30;;;20.20;30.30;;;;;;5014728;28;20430;-71
2022/02/11 10:53:02;;;;;;;0.30;0.30;;;19.70;32.30;;;;;;5014644;28;20934;-71
2022/02/11 10:55:28;;;;;;;0.30;0.30;;;19.40;32.10;;;;;;5014614;28;20172;-71
2022/02/11 10:57:59;;;;;;;0.30;0.30;;;19.20;32.70;;;;;;5014558;28;20795;-71
2022/02/11 11:00:25;;;;;;;0.40;0.40;;;18.40;33.10;;;;;;5014497;28;20784;-71
2022/02/11 11:02:51;;;;;;;0.30;0.30;;;18.20;33.40;;;;;;5014491;28;20399;-71
2022/02/11 11:05:17;;;;;;;0.30;0.30;;;17.80;32.00;;;;;;5014469;28;20817;-71
2022/02/11 11:07:43;;;;;;;0.30;0.30;;;17.60;32.80;;;;;;5014656;28;20222;-71
2022/02/11 11:10:11;;;;;;;0.30;0.30;;;16.10;32.40;;;;;;5014480;28;20183;-71
2022/02/11 11:12:42;;;;;;;0.40;0.40;;;16.20;32.40;;;;;;5014414;28;20438;-71
2022/02/11 11:15:08;;;;;;;0.37;0.37;;;15.80;33.80;;;;;;5014231;28;20885;-71
2022/02/11 11:17:38;;;;;;;0.30;0.30;;;15.30;34.70;;;;;;5014522;28;20413;-71
2022/02/11 11:20:05;;;;;;;0.30;0.30;;;14.90;36.50;;;;;;5014191;28;20484;-71
2022/02/11 11:22:40;;;;;;;0.30;0.30;;;14.60;38.40;;;;;;5014143;28;20399;-70
2022/02/11 11:25:08;;;;;;;0.40;0.40;;;14.10;38.50;;;;;;5014260;28;20472;-71
2022/02/11 11:27:44;;;;;;;0.40;0.40;;;13.60;39.00;;;;;;5014528;28;20410;-71
2022/02/11 11:30:30;;;;;;;0.30;0.30;;;13.00;40.00;;;;;;5013563;28;20846;-71
2022/02/11 11:33:07;;;;;;;0.30;0.30;;;12.50;41.60;;;;;;5014044;28;20581;-71
2022/02/11 11:35:37;;;;;;;0.40;0.40;;;12.10;41.50;;;;;;5013828;28;20184;-71
2022/02/11 11:38:14;;;;;;;0.30;0.30;;;11.60;42.50;;;;;;5014082;28;20197;-71
2022/02/11 11:40:40;;;;;;;0.40;0.40;;;11.20;42.50;;;;;;5013878;28;20565;-71
2022/02/11 11:43:13;;;;;;;0.40;0.40;;;10.90;43.80;;;;;;5012648;28;20171;-71
2022/02/11 11:45:42;;;;;;;0.30;0.30;;;10.50;44.50;;;;;;5013874;28;20179;-71
2022/02/11 11:48:15;;;;;;;0.30;0.30;;;10.30;45.70;;;;;;5014077;28;20171;-71
2022/02/11 11:50:41;;;;;;;0.40;0.40;;;10.20;45.30;;;;;;5013864;28;20206;-71
2022/02/11 11:53:26;;;;;;;0.30;0.30;;;10.30;45.10;;;;;;5013821;28;20266;-71
2022/02/11 11:55:53;;;;;;;0.40;0.40;;;10.20;44.80;;;;;;5013684;28;20178;-71
2022/02/11 11:58:44;;;;;;;0.40;0.40;;;9.90;47.20;;;;;;5013964;28;20186;-71
2022/02/11 12:01:17;;;;;;;0.35;0.35;;;10.00;48.50;;;;;;5013793;28;20286;-71
2022/02/11 12:04:15;;;;;;;0.40;0.40;;;10.00;48.50;;;;;;5013751;28;20246;-71
2022/02/11 12:06:41;;;;;;;0.30;0.30;;;9.80;49.50;;;;;;5013543;28;20644;-71
2022/02/11 12:09:06;;;;;;;0.30;0.30;;;9.50;48.60;;;;;;5013631;28;20175;-71
2022/02/11 12:11:32;;;;;;;0.30;0.30;;;9.50;49.20;;;;;;5013574;28;20222;-70
2022/02/11 12:14:00;;;;;;;0.40;0.40;;;9.40;49.90;;;;;;5013804;28;20336;-71
2022/02/11 12:16:26;;;;;;;0.40;0.40;;;9.50;50.60;;;;;;5013408;28;20426;-71
2022/02/11 12:18:52;;;;;;;0.40;0.40;;;9.70;48.90;;;;;;5013669;28;20199;-71
2022/02/11 12:21:18;;;;;;;0.40;0.40;;;9.40;47.00;;;;;;5013455;28;20264;-71
2022/02/11 12:29:11;;;;;;;0.30;0.30;;;8.70;49.20;;;;;;5013653;28;20186;-71
2022/02/11 12:31:38;;;;;;;0.40;0.40;;;8.30;47.50;;;;;;5013344;28;20189;-71
2022/02/11 12:34:20;;;;;;;0.40;0.40;;;8.20;48.00;;;;;;5013424;28;20203;-71
2022/02/11 12:36:46;;;;;;;0.30;0.30;;;8.00;49.80;;;;;;5013301;28;20177;-71
2022/02/11 12:39:23;;;;;;;0.40;0.40;;;8.00;49.90;;;;;;5013476;28;20195;-71
2022/02/11 12:41:51;;;;;;;0.30;0.30;;;7.70;55.30;;;;;;5013350;28;20216;-71
2022/02/11 12:44:25;;;;;;;0.40;0.40;;;7.20;56.00;;;;;;5017005;28;20164;-70
2022/02/11 12:46:55;;;;;;;0.40;0.40;;;6.30;57.30;;;;;;5016985;28;20171;-70
2022/02/11 12:49:21;;;;;;;0.40;0.40;;;6.10;59.70;;;;;;5017160;28;20535;-71
2022/02/11 12:51:54;;;;;;;0.30;0.30;;;6.10;57.60;;;;;;5016892;28;20195;-71
2022/02/11 12:54:21;;;;;;;0.40;0.40;;;6.20;58.80;;;;;;5016883;28;20183;-71
2022/02/11 12:56:49;;;;;;;0.40;0.40;;;6.20;59.30;;;;;;5016732;28;20180;-71
2022/02/11 12:59:15;;;;;;;0.40;0.40;;;6.00;59.90;;;;;;5016933;28;20261;-71
2022/02/11 13:01:41;;;;;;;0.40;0.40;;;5.70;60.30;;;;;;5016786;28;20282;-71
2022/02/11 13:04:07;;;;;;;0.40;0.40;;;5.60;63.00;;;;;;5016907;28;20398;-71
2022/02/11 13:06:34;;;;;;;0.37;0.37;;;5.80;61.30;;;;;;5016563;28;20218;-71
2022/02/11 13:09:04;;;;;;;0.30;0.30;;;5.40;60.00;;;;;;5016566;28;20962;-70
2022/02/11 13:11:30;;;;;;;0.40;0.40;;;5.50;59.40;;;;;;5015289;28;20249;-71
2022/02/11 13:14:01;;;;;;;0.40;0.40;;;5.50;59.90;;;;;;5016683;28;20217;-71
2022/02/11 13:16:28;;;;;;;0.40;0.40;;;5.70;60.80;;;;;;5016380;28;20179;-70
2022/02/11 13:18:54;;;;;;;0.40;0.40;;;5.50;59.60;;;;;;5016685;28;20175;-71
2022/02/11 13:21:21;;;;;;;0.40;0.40;;;5.60;60.00;;;;;;5016546;28;20565;-71
2022/02/11 13:23:50;;;;;;;1.17;1.13;;;5.60;58.80;;;;;;5016473;28;20251;-71
2022/02/11 13:26:16;;;;;;;0.40;0.40;;;5.70;58.30;;;;;;5016264;28;20172;-70
2022/02/11 13:28:48;;;;;;;0.40;0.40;;;5.80;59.10;;;;;;5016490;28;20168;-70
2022/02/11 13:31:14;;;;;;;0.40;0.40;;;5.70;61.20;;;;;;5016267;28;20214;-71
2022/02/11 13:33:40;;;;;;;0.40;0.40;;;5.80;61.20;;;;;;5016289;28;20172;-71
2022/02/11 13:36:11;;;;;;;0.40;0.40;;;5.90;62.60;;;;;;5014799;28;20294;-70
2022/02/11 13:38:46;;;;;;;0.40;0.40;;;5.70;62.60;;;;;;5016199;28;20502;-71
2022/02/11 13:41:13;;;;;;;0.30;0.30;;;5.60;65.80;;;;;;5014659;28;20214;-70
2022/02/11 13:43:46;;;;;;;0.40;0.40;;;5.40;68.90;;;;;;5016007;28;20168;-70
2022/02/11 13:46:24;;;;;;;0.40;0.40;;;5.50;72.60;;;;;;5015904;28;20180;-71
2022/02/11 13:48:54;;;;;;;0.40;0.40;;;5.50;68.30;;;;;;5014786;28;20698;-71
2022/02/11 13:51:21;;;;;;;0.40;0.40;;;5.60;70.00;;;;;;5015807;28;20191;-70
2022/02/11 13:53:54;;;;;;;0.40;0.40;;;5.60;68.80;;;;;;5015373;28;20644;-70
2022/02/11 13:56:36;;;;;;;0.40;0.40;;;5.60;70.10;;;;;;5015742;28;20265;-70
2022/02/11 13:59:13;;;;;;;0.35;0.35;;;5.70;69.40;;;;;;5016228;28;20179;-71
2022/02/11 14:01:39;;;;;;;0.40;0.40;;;5.60;67.10;;;;;;5015618;28;20211;-70
2022/02/11 14:04:06;;;;;;;0.40;0.40;;;5.50;70.30;;;;;;5015777;28;20655;-71
2022/02/11 14:06:36;;;;;;;0.40;0.40;;;5.70;74.10;;;;;;5015481;28;20176;-71
2022/02/11 14:09:03;;;;;;;0.30;0.30;;;5.70;73.10;;;;;;5015775;28;20172;-71
2022/02/11 14:11:37;;;;;;;0.30;0.30;;;5.70;72.30;;;;;;5015621;28;20227;-70
2022/02/11 14:14:17;;;;;;;0.40;0.40;;;5.60;73.70;;;;;;5016036;28;20259;-70
2022/02/11 14:16:47;;;;;;;0.40;0.40;;;5.50;74.20;;;;;;5015420;28;20685;-70
2022/02/11 14:19:27;;;;;;;0.40;0.40;;;5.30;75.00;;;;;;5015529;28;20187;-71
2022/02/11 14:22:01;;;;;;;0.32;0.32;;;5.30;76.20;;;;;;5014206;28;20257;-70
2022/02/11 14:24:29;;;;;;;0.40;0.40;;;5.10;78.60;;;;;;5015311;28;20593;-70
2022/02/11 14:26:55;;;;;;;0.40;0.40;;;5.00;80.50;;;;;;5015171;28;20168;-71
2022/02/11 14:29:21;;;;;;;0.40;0.40;;;4.60;82.60;;;;;;5015291;28;20183;-70
2022/02/11 14:31:47;;;;;;;0.40;0.40;;;4.40;84.10;;;;;;5014963;28;20218;-71
2022/02/11 14:34:14;;;;;;;0.30;0.30;;;4.20;85.20;;;;;;5015018;28;20406;-70
2022/02/11 14:36:42;;;;;;;0.30;0.30;;;3.90;86.40;;;;;;5013607;28;20184;-70
2022/02/11 14:39:13;;;;;;;0.40;0.40;;;3.90;88.90;;;;;;5015234;28;20167;-71
2022/02/11 14:41:46;;;;;;;0.40;0.40;;;3.80;90.20;;;;;;5014999;28;20604;-70
2022/02/11 14:44:19;;;;;;;0.30;0.30;;;3.90;90.80;;;;;;5015031;28;20185;-71
2022/02/11 14:46:46;;;;;;;0.40;0.40;;;3.80;90.30;;;;;;5014693;28;20197;-70
2022/02/11 14:49:12;;;;;;;0.40;0.40;;;3.80;91.20;;;;;;5014827;28;20181;-70
2022/02/11 14:51:38;;;;;;;0.40;0.40;;;3.70;91.70;;;;;;5014764;28;20436;-70
2022/02/11 14:54:08;;;;;;;0.40;0.40;;;3.70;92.10;;;;;;5014712;28;20429;-70
2022/02/11 14:56:40;;;;;;;0.35;0.35;;;3.70;92.20;;;;;;5014535;28;20561;-71
2022/02/11 14:59:08;;;;;;;0.30;0.30;;;3.80;92.30;;;;;;5014889;28;20179;-71
2022/02/11 15:01:44;;;;;;;0.40;0.40;;;3.80;92.40;;;;;;5013196;28;20692;-71
2022/02/11 15:04:10;;;;;;;0.40;0.40;;;3.80;92.50;;;;;;5014637;28;20174;-70
2022/02/11 15:06:37;;;;;;;0.40;0.40;;;3.80;92.60;;;;;;5014049;28;20172;-70
2022/02/11 15:09:04;;;;;;;0.30;0.30;;;3.80;92.60;;;;;;5014628;28;20170;-70
2022/02/11 15:11:31;;;;;;;0.40;0.40;;;3.80;92.70;;;;;;5014556;28;20206;-71
2022/02/11 15:13:57;;;;;;;0.30;0.30;;;3.60;93.00;;;;;;5014393;28;20183;-70
2022/02/11 15:16:23;;;;;;;0.30;0.30;;;3.60;93.30;;;;;;5014239;28;20182;-70
2022/02/11 15:18:48;;;;;;;0.40;0.40;;;3.50;93.50;;;;;;5014380;28;20173;-71
2022/02/11 15:21:15;;;;;;;0.30;0.30;;;3.50;93.70;;;;;;5014344;28;20206;-70
2022/02/11 15:23:41;;;;;;;0.30;0.30;;;3.30;93.80;;;;;;5014229;28;20177;-70
2022/02/11 15:26:09;;;;;;;0.30;0.30;;;3.30;93.60;;;;;;5014188;28;20176;-70
2022/02/11 15:28:38;;;;;;;0.32;0.32;;;3.40;93.60;;;;;;5013096;28;20170;-70
2022/02/11 15:31:08;;;;;;;0.30;0.30;;;3.30;94.10;;;;;;5014209;28;20194;-70
2022/02/11 15:33:33;;;;;;;0.40;0.40;;;3.40;94.10;;;;;;5014164;28;20680;-70
2022/02/11 15:35:59;;;;;;;0.40;0.40;;;3.40;93.80;;;;;;5013896;28;20206;-70
2022/02/11 15:38:25;;;;;;;0.40;0.40;;;3.40;93.40;;;;;;5014198;28;20206;-71
2022/02/11 15:40:51;;;;;;;0.37;0.37;;;3.30;93.40;;;;;;5014296;28;20211;-70
2022/02/11 15:43:17;;;;;;;0.40;0.40;;;3.10;93.70;;;;;;5012675;28;20179;-71
2022/02/11 15:45:43;;;;;;;0.40;0.40;;;3.10;93.00;;;;;;5013984;28;20174;-71
2022/02/11 15:48:11;;;;;;;0.40;0.40;;;3.00;92.90;;;;;;5014284;28;20512;-70
2022/02/11 15:50:38;;;;;;;0.30;0.30;;;2.90;93.10;;;;;;5013838;28;20603;-70
2022/02/11 15:53:04;;;;;;;0.30;0.30;;;3.00;93.20;;;;;;5013685;28;20316;-70
2022/02/11 15:55:29;;;;;;;0.30;0.30;;;3.00;93.30;;;;;;5013743;28;20268;-70
2022/02/11 15:57:55;;;;;;;0.30;0.30;;;3.00;93.30;;;;;;5013762;28;20438;-70
2022/02/11 16:00:21;;;;;;;0.30;0.30;;;3.00;92.90;;;;;;5013515;28;20272;-70
2022/02/11 16:02:47;;;;;;;0.30;0.30;;;3.00;92.70;;;;;;5013749;28;20174;-71
2022/02/11 16:05:13;;;;;;;0.30;0.30;;;3.00;92.50;;;;;;5013773;28;20174;-70
2022/02/11 16:07:38;;;;;;;0.40;0.40;;;3.00;92.60;;;;;;5013863;28;20178;-70
2022/02/11 16:10:06;;;;;;;0.30;0.30;;;2.80;93.00;;;;;;5013802;28;20177;-70
2022/02/11 16:12:32;;;;;;;0.30;0.30;;;2.70;93.20;;;;;;5013533;28;20211;-71
2022/02/11 16:15:00;;;;;;;0.35;0.35;;;2.80;93.40;;;;;;5013597;28;20173;-70
2022/02/11 16:17:26;;;;;;;0.30;0.30;;;2.70;93.40;;;;;;5016153;28;20169;-70
2022/02/11 16:19:53;;;;;;;0.30;0.30;;;2.70;93.40;;;;;;5017493;28;20169;-70
2022/02/11 16:22:20;;;;;;;0.30;0.30;;;2.60;93.20;;;;;;5016234;28;20266;-70
2022/02/11 16:24:46;;;;;;;0.30;0.30;;;2.60;93.20;;;;;;5017656;28;20176;-70
2022/02/11 16:27:15;;;;;;;0.30;0.30;;;2.50;93.40;;;;;;5017356;28;20168;-70
2022/02/11 16:29:41;;;;;;;0.40;0.40;;;2.50;93.70;;;;;;5017488;28;20175;-71
2022/02/11 16:32:07;;;;;;;0.30;0.30;;;2.40;94.00;;;;;;5017469;28;20635;-70
2022/02/11 16:34:33;;;;;;;0.40;0.40;;;2.30;93.90;;;;;;5016221;28;20637;-70
2022/02/11 16:36:59;;;;;;;0.30;0.30;;;2.30;94.00;;;;;;5017205;28;20176;-70
2022/02/11 16:39:25;;;;;;;0.40;0.40;;;2.20;94.10;;;;;;5017433;28;20506;-70
2022/02/11 16:41:51;;;;;;;0.30;0.30;;;2.20;94.20;;;;;;5017054;28;20470;-70
2022/02/11 16:44:18;;;;;;;0.30;0.30;;;2.20;94.30;;;;;;5017191;28;20176;-70
2022/02/11 16:46:45;;;;;;;0.30;0.30;;;2.10;94.60;;;;;;5016888;28;20744;-70
2022/02/11 16:49:17;;;;;;;0.30;0.30;;;2.10;94.90;;;;;;5017266;28;20524;-70
2022/02/11 16:51:46;;;;;;;0.30;0.30;;;2.10;95.10;;;;;;5017216;28;20196;-70
2022/02/11 16:54:12;;;;;;;0.30;0.30;;;2.10;95.10;;;;;;5016706;28;20194;-70